Aeroporto :







RITROVATECI SU...

 
LOGIN :

Iscrizione | Disclaimer

   EN    FR    IT 

 









Sommario :    VFR   VFR Marginale   IFR   IFR Intensivo   IFR Molto Intensivo
Visibilità : 
Base nubi : 
>= 8 km
>= 3000ft
5 / 8 km
1000 / 3000 ft
1500m / 5 km
500 / 1000 ft
800 / 1500m
200 / 500 ft
< 800m
< 200 ft
Simboli :   Temporali  Nebbia  Neve Forte  Precipitazioni Forti  Vento > 20 kt






- Altitudine del aeroporto : 270 ft
- Codice IATA : YMX


CYMX - Montreal International Mirabel

ULTIMO METAR :
  • 112000Z 08005KT 35SM BKN053 OVC100 M05/M14 A3024 RMK SC5AS3 SLP246

METARs OBSOLETI :
  • 111900Z 08005KT 45SM FEW025 OVC081 M05/M13 A3024 RMK SC1AC8 SC TR SLP246
  • 111800Z 09005KT 040V100 45SM FEW028 OVC110 M05/M13 A3025 RMK CU1AS7 SLP252

TAF AMD TAF CYMX
Valido dal 11 a 19 ore il 12 a 18 ore UTC


111940Z 1119/1218 06008KT P6SM OVC060
TEMPO 1120/1122 11/2SM -SN BKN020 OVC060
FM112200 05006KT 1SM -SN BKN008 OVC020
TEMPO 1122/1201 3SM -SN OVC030
BECMG 1122/1124 04010KT
FM120100 04010G20KT 3/4SM -SN VV007
FM121000 01010G20KT 2SM -SN VV010
FM121500 32008KT P6SM -SN BKN030
BECMG 1216/1218 28010KT RMK NXT FCST BY 120000Z



MetMap, La meteo Aeronautica in un colpo d'occhio ! - Copyright ORBIFLY Dicembre 2007 - Disclaimer

ORBIFLY MET'MAP TEAM :

Programmazione e sviluppo : Alexandra Zaïnal
Concezione e sviluppo : Baudouin d'Aumeries
Co-Programmazione e sviluppo : Marc-Olivier Méhu
Supporto tecnico e logistico : Manuel Goepfert
Aiuto per la traduzione : Arnaldo La Scala

Contatto : metmap@orbifly.com




FONTI E CREDITI :

   NOAA